Time;durP1;ratioP1;P1;durP2;ratioP2;P2;SDS_P1;SDS_P2;PMS_P1;PMS_P2;Temp;Humidity;BMP_temperature;BMP_pressure;BME280_temperature;BME280_humidity;BME280_pressure;Samples;Min_cycle;Max_cycle;Signal;HPM_P1;HPM_P2
2021/09/26 00:02:13;;;;;;;5.97;5.47;;;18.70;99.90;;;;;;6059163;23;20280;-77
2021/09/26 00:04:40;;;;;;;6.45;5.70;;;18.70;99.90;;;;;;6059193;23;20214;-75
2021/09/26 00:07:08;;;;;;;6.53;5.93;;;18.70;99.90;;;;;;6059229;23;20214;-76
2021/09/26 00:09:35;;;;;;;6.40;5.80;;;18.60;99.90;;;;;;6057328;23;20747;-78
2021/09/26 00:12:02;;;;;;;6.65;6.13;;;18.60;99.90;;;;;;6058805;23;20198;-78
2021/09/26 00:14:31;;;;;;;6.70;6.20;;;18.60;99.90;;;;;;6059159;23;20257;-76
2021/09/26 00:16:58;;;;;;;6.75;6.15;;;18.50;99.90;;;;;;6061223;23;20264;-77
2021/09/26 00:19:26;;;;;;;6.13;5.63;;;18.50;99.90;;;;;;6059982;23;20223;-77
2021/09/26 00:21:53;;;;;;;5.22;4.82;;;18.50;99.90;;;;;;6060091;23;20714;-76
2021/09/26 00:24:21;;;;;;;6.05;5.45;;;18.50;99.90;;;;;;6058506;23;20273;-76
2021/09/26 00:26:48;;;;;;;6.38;5.88;;;18.50;99.90;;;;;;6057809;23;20265;-76
2021/09/26 00:29:15;;;;;;;6.18;5.68;;;18.50;99.90;;;;;;6057570;23;20206;-77
2021/09/26 00:31:43;;;;;;;5.72;5.28;;;18.50;99.90;;;;;;6059105;23;20213;-77
2021/09/26 00:34:10;;;;;;;5.60;5.20;;;18.50;99.90;;;;;;6058157;23;20206;-77
2021/09/26 00:36:37;;;;;;;6.47;5.97;;;18.50;99.90;;;;;;6057240;23;20218;-77
2021/09/26 00:39:05;;;;;;;6.30;5.78;;;18.40;99.90;;;;;;6057039;23;20213;-77
2021/09/26 00:41:32;;;;;;;5.97;5.47;;;18.40;99.90;;;;;;6057728;23;20235;-76
2021/09/26 00:43:59;;;;;;;5.80;5.30;;;18.30;99.90;;;;;;6057661;23;20213;-77
2021/09/26 00:46:26;;;;;;;6.18;5.57;;;18.40;99.90;;;;;;6057305;23;20210;-77
2021/09/26 00:48:55;;;;;;;5.88;5.40;;;18.30;99.90;;;;;;6057504;23;20218;-77
2021/09/26 00:51:22;;;;;;;5.63;5.22;;;18.30;99.90;;;;;;6057734;23;20219;-76
2021/09/26 00:53:49;;;;;;;5.60;5.18;;;18.30;99.90;;;;;;6057581;23;20698;-76
2021/09/26 00:56:17;;;;;;;6.25;5.68;;;18.30;99.90;;;;;;6057982;23;20210;-77
2021/09/26 00:58:45;;;;;;;6.72;6.13;;;18.30;99.90;;;;;;6049723;23;20210;-75
2021/09/26 01:01:12;;;;;;;6.47;5.90;;;18.20;99.90;;;;;;6054264;23;20217;-76
2021/09/26 01:03:39;;;;;;;5.53;5.03;;;18.20;99.90;;;;;;6055494;23;20214;-75
2021/09/26 01:06:21;;;;;;;6.15;5.65;;;18.20;99.90;;;;;;6057435;23;20549;-75
2021/09/26 01:08:57;;;;;;;6.22;5.72;;;18.20;99.90;;;;;;6056639;23;20214;-75
2021/09/26 01:11:32;;;;;;;6.40;5.82;;;18.20;99.90;;;;;;6056217;23;20738;-76
2021/09/26 01:14:07;;;;;;;6.85;6.28;;;18.20;99.90;;;;;;6056394;23;20205;-75
2021/09/26 01:16:38;;;;;;;6.20;5.70;;;18.10;99.90;;;;;;6056041;23;20299;-76
2021/09/26 01:19:26;;;;;;;6.55;5.95;;;18.10;99.90;;;;;;6056400;23;20214;-75
2021/09/26 01:21:58;;;;;;;5.60;5.10;;;18.10;99.90;;;;;;6056394;23;20210;-75
2021/09/26 01:24:55;;;;;;;7.10;6.45;;;18.10;99.90;;;;;;6047777;23;20197;-76
2021/09/26 01:27:46;;;;;;;7.07;6.43;;;18.10;99.90;;;;;;6063861;23;20527;-75
2021/09/26 01:30:21;;;;;;;6.70;6.13;;;18.00;99.90;;;;;;6058023;23;20663;-75
2021/09/26 01:36:22;;;;;;;6.65;6.15;;;17.90;99.90;;;;;;6058554;23;20214;-76
2021/09/26 01:45:23;;;;;;;7.30;6.70;;;17.80;99.90;;;;;;6024066;23;20205;-75
2021/09/26 01:47:57;;;;;;;6.50;6.00;;;17.70;99.90;;;;;;6052836;23;20273;-75
2021/09/26 01:50:25;;;;;;;7.05;6.45;;;17.60;99.90;;;;;;6059464;23;20209;-75
2021/09/26 01:52:53;;;;;;;7.18;6.57;;;17.60;99.90;;;;;;6057239;23;20210;-75
2021/09/26 01:55:25;;;;;;;7.10;6.30;;;17.70;99.90;;;;;;6058623;23;20660;-75
2021/09/26 01:57:53;;;;;;;6.22;5.72;;;17.70;99.90;;;;;;6056032;23;20229;-75
2021/09/26 02:00:21;;;;;;;7.15;6.47;;;17.70;99.90;;;;;;6059244;23;20535;-75
2021/09/26 02:02:50;;;;;;;6.90;6.30;;;17.70;99.90;;;;;;6058946;23;20202;-76
2021/09/26 02:05:18;;;;;;;6.70;6.10;;;17.80;99.90;;;;;;6059875;23;20206;-75
2021/09/26 02:07:49;;;;;;;6.38;5.88;;;17.80;99.90;;;;;;6057205;23;20717;-74
2021/09/26 02:10:20;;;;;;;7.18;6.57;;;17.70;99.90;;;;;;6058412;23;20595;-76
2021/09/26 02:12:47;;;;;;;5.45;5.05;;;17.70;99.90;;;;;;6058208;23;20706;-76
2021/09/26 02:15:17;;;;;;;6.97;6.30;;;17.70;99.90;;;;;;6056198;23;20210;-75
2021/09/26 02:17:47;;;;;;;6.70;6.15;;;17.70;99.90;;;;;;6074094;23;20280;-74
2021/09/26 02:20:16;;;;;;;6.38;5.80;;;17.60;99.90;;;;;;6057777;23;20667;-76
2021/09/26 02:22:45;;;;;;;6.32;5.72;;;17.60;99.90;;;;;;6056706;23;20828;-75
2021/09/26 02:25:14;;;;;;;6.55;6.05;;;17.60;99.90;;;;;;6059065;23;20232;-76
2021/09/26 02:27:41;;;;;;;6.97;6.40;;;17.60;99.90;;;;;;6057670;23;20217;-75
2021/09/26 02:30:10;;;;;;;6.43;5.90;;;17.60;99.90;;;;;;6058864;23;20209;-75
2021/09/26 02:32:37;;;;;;;6.40;5.90;;;17.60;99.90;;;;;;6054696;23;20214;-76
2021/09/26 02:35:08;;;;;;;6.55;6.05;;;17.50;99.90;;;;;;6057233;23;20209;-75
2021/09/26 02:37:35;;;;;;;6.68;6.18;;;17.50;99.90;;;;;;6057194;23;20214;-76
2021/09/26 02:40:04;;;;;;;7.28;6.68;;;17.50;99.90;;;;;;6057919;23;20209;-76
2021/09/26 02:42:38;;;;;;;7.25;6.65;;;17.50;99.90;;;;;;6058626;23;20210;-75
2021/09/26 02:45:11;;;;;;;6.70;6.20;;;17.50;99.90;;;;;;6057962;23;20270;-75
2021/09/26 02:47:41;;;;;;;6.45;5.95;;;17.50;99.90;;;;;;6057833;23;20714;-76
2021/09/26 02:50:11;;;;;;;9.98;9.15;;;17.50;99.90;;;;;;6056708;23;20210;-75
2021/09/26 02:52:38;;;;;;;9.07;8.27;;;17.50;99.90;;;;;;6057900;23;20266;-76
2021/09/26 02:55:06;;;;;;;7.95;7.35;;;17.30;99.90;;;;;;6057925;23;20511;-75
2021/09/26 02:57:34;;;;;;;6.70;6.20;;;17.20;99.90;;;;;;6055580;23;20240;-75
2021/09/26 03:00:02;;;;;;;6.60;6.05;;;17.20;99.90;;;;;;6057318;23;20206;-75
2021/09/26 03:02:31;;;;;;;6.18;5.70;;;17.30;99.90;;;;;;6058373;23;20258;-73
2021/09/26 03:04:58;;;;;;;6.38;5.88;;;17.30;99.90;;;;;;6057962;23;20209;-75
2021/09/26 03:07:27;;;;;;;6.70;6.20;;;17.30;99.90;;;;;;6027942;23;20207;-75
2021/09/26 03:09:54;;;;;;;6.85;6.25;;;17.30;99.90;;;;;;6043294;23;20206;-75
2021/09/26 03:12:23;;;;;;;6.25;5.75;;;17.30;99.90;;;;;;6028421;23;20211;-75
2021/09/26 03:14:52;;;;;;;6.32;5.72;;;17.30;99.90;;;;;;6028910;23;20281;-75
2021/09/26 03:17:19;;;;;;;5.72;5.22;;;17.30;99.90;;;;;;6028078;23;20262;-75
2021/09/26 03:19:47;;;;;;;6.45;5.85;;;17.40;99.90;;;;;;6027808;23;20226;-75
2021/09/26 03:22:14;;;;;;;6.07;5.57;;;17.40;99.90;;;;;;6029703;23;20277;-75
2021/09/26 03:24:42;;;;;;;5.97;5.47;;;17.40;99.90;;;;;;6028195;23;20206;-75
2021/09/26 03:27:11;;;;;;;6.22;5.75;;;17.40;99.90;;;;;;6028184;23;20254;-75
2021/09/26 03:29:41;;;;;;;6.30;5.80;;;17.50;99.90;;;;;;6027599;23;20211;-76
2021/09/26 03:32:08;;;;;;;6.38;5.88;;;17.50;99.90;;;;;;6028718;23;20270;-75
2021/09/26 03:34:36;;;;;;;5.53;5.10;;;17.50;99.90;;;;;;6029957;23;20206;-76
2021/09/26 03:37:03;;;;;;;5.45;5.05;;;17.50;99.90;;;;;;6026973;23;20210;-76
2021/09/26 03:39:30;;;;;;;5.18;4.75;;;17.50;99.90;;;;;;6028733;23;20203;-76
2021/09/26 03:41:58;;;;;;;6.43;5.90;;;17.50;99.90;;;;;;6029156;23;20207;-75
2021/09/26 03:44:25;;;;;;;8.45;7.78;;;17.50;99.90;;;;;;6058190;23;20586;-76
2021/09/26 03:46:53;;;;;;;7.25;6.65;;;17.50;99.90;;;;;;6055752;23;20242;-74
2021/09/26 03:49:20;;;;;;;7.68;7.07;;;17.40;99.90;;;;;;6057786;23;20274;-74
2021/09/26 03:51:48;;;;;;;7.70;7.10;;;17.30;99.90;;;;;;6059105;23;20202;-75
2021/09/26 03:54:15;;;;;;;7.05;6.45;;;17.20;99.90;;;;;;6059119;23;20209;-76
2021/09/26 03:56:43;;;;;;;6.82;6.30;;;17.20;99.90;;;;;;6058628;23;20214;-73
2021/09/26 03:59:12;;;;;;;7.05;6.45;;;17.10;99.90;;;;;;6058550;23;20284;-76
2021/09/26 04:01:39;;;;;;;6.32;5.82;;;17.10;99.90;;;;;;6067322;23;20206;-77
2021/09/26 04:04:06;;;;;;;6.50;6.00;;;17.10;99.90;;;;;;6061030;23;20206;-76
2021/09/26 04:06:33;;;;;;;7.05;6.45;;;17.10;99.90;;;;;;6059558;23;20214;-77
2021/09/26 04:09:01;;;;;;;7.15;6.55;;;17.10;99.90;;;;;;6056959;23;20202;-76
2021/09/26 04:11:28;;;;;;;6.82;6.22;;;17.10;99.90;;;;;;6058665;23;20206;-76
2021/09/26 04:13:55;;;;;;;6.25;5.75;;;17.10;99.90;;;;;;6057235;23;20281;-76
2021/09/26 04:16:23;;;;;;;6.28;5.75;;;17.10;99.90;;;;;;6058393;23;20531;-76
2021/09/26 04:18:50;;;;;;;6.78;6.13;;;17.10;99.90;;;;;;6058354;23;20261;-76
2021/09/26 04:21:18;;;;;;;5.88;5.40;;;17.10;99.90;;;;;;6059199;23;20238;-74
2021/09/26 04:23:46;;;;;;;5.47;5.07;;;17.10;99.90;;;;;;6057883;23;20209;-76
2021/09/26 04:26:13;;;;;;;6.45;5.90;;;17.10;99.90;;;;;;6058884;23;20209;-73
2021/09/26 04:28:41;;;;;;;6.03;5.60;;;17.10;99.90;;;;;;6058478;23;20281;-76
2021/09/26 04:31:08;;;;;;;7.53;6.90;;;17.10;99.90;;;;;;6059658;23;20216;-74
2021/09/26 04:33:36;;;;;;;8.95;8.13;;;17.10;99.90;;;;;;6058997;23;20214;-75
2021/09/26 04:36:04;;;;;;;8.63;7.88;;;17.00;99.90;;;;;;6059422;23;20202;-75
2021/09/26 04:38:31;;;;;;;9.60;8.80;;;16.90;99.90;;;;;;6058516;23;20706;-74
2021/09/26 04:40:59;;;;;;;8.32;7.53;;;16.70;99.90;;;;;;6058935;23;20300;-75
2021/09/26 04:43:26;;;;;;;7.72;7.03;;;16.60;99.90;;;;;;6059654;23;20202;-77
2021/09/26 04:45:53;;;;;;;6.75;6.25;;;16.70;99.90;;;;;;6058838;23;20206;-73
2021/09/26 04:48:20;;;;;;;8.38;7.70;;;16.70;99.90;;;;;;6059059;23;20268;-74
2021/09/26 04:50:48;;;;;;;7.55;6.95;;;16.70;99.90;;;;;;6058582;23;20210;-75
2021/09/26 04:53:16;;;;;;;7.63;6.95;;;16.70;99.90;;;;;;6064883;23;20210;-75
2021/09/26 04:55:43;;;;;;;7.45;6.85;;;16.70;99.90;;;;;;6062534;23;20206;-75
2021/09/26 04:58:10;;;;;;;6.95;6.35;;;16.80;99.90;;;;;;6058455;23;20210;-76
2021/09/26 05:00:38;;;;;;;6.97;6.30;;;16.80;99.90;;;;;;6059270;23;20300;-75
2021/09/26 05:03:05;;;;;;;6.80;6.20;;;16.80;99.90;;;;;;6058577;23;20270;-75
2021/09/26 05:05:32;;;;;;;6.25;5.75;;;16.80;99.90;;;;;;6060162;23;20217;-75
2021/09/26 05:08:01;;;;;;;6.50;6.00;;;16.80;99.90;;;;;;6060079;23;20285;-76
2021/09/26 05:10:29;;;;;;;6.22;5.63;;;16.90;99.90;;;;;;6021678;23;20210;-75
2021/09/26 05:12:56;;;;;;;6.05;5.55;;;16.90;99.90;;;;;;6034475;23;20203;-74
2021/09/26 05:15:23;;;;;;;6.80;6.20;;;16.90;99.90;;;;;;6030306;23;20742;-74
2021/09/26 05:17:50;;;;;;;5.72;5.32;;;16.90;99.90;;;;;;6043052;23;20290;-76
2021/09/26 05:20:17;;;;;;;6.60;6.00;;;17.00;99.90;;;;;;6059390;23;20265;-76
2021/09/26 05:22:46;;;;;;;6.03;5.53;;;17.00;99.90;;;;;;6058503;23;20214;-74
2021/09/26 05:25:15;;;;;;;6.00;5.50;;;17.00;99.90;;;;;;6058879;23;20208;-75
2021/09/26 05:27:42;;;;;;;6.35;5.85;;;17.00;99.90;;;;;;6059170;23;20218;-75
2021/09/26 05:30:11;;;;;;;6.50;6.00;;;17.00;99.90;;;;;;6058606;23;20524;-75
2021/09/26 05:32:38;;;;;;;7.53;6.88;;;17.00;99.90;;;;;;6058539;23;20368;-75
2021/09/26 05:35:06;;;;;;;7.03;6.43;;;17.00;99.90;;;;;;6058374;23;20227;-75
2021/09/26 05:37:33;;;;;;;6.25;5.75;;;16.90;99.90;;;;;;6056563;23;20214;-76
2021/09/26 05:40:00;;;;;;;6.30;5.80;;;16.90;99.90;;;;;;6057120;23;20659;-75
2021/09/26 05:42:29;;;;;;;7.03;6.43;;;16.90;99.90;;;;;;6060271;23;20218;-76
2021/09/26 05:44:56;;;;;;;7.70;7.10;;;17.00;99.90;;;;;;6026201;23;20206;-75
2021/09/26 05:47:23;;;;;;;7.40;6.80;;;17.00;99.90;;;;;;6057912;23;20443;-76
2021/09/26 05:49:50;;;;;;;7.97;7.28;;;17.00;99.90;;;;;;6058812;23;20214;-75
2021/09/26 05:52:17;;;;;;;8.07;7.43;;;17.00;99.90;;;;;;6057750;23;20206;-76
2021/09/26 05:54:44;;;;;;;8.57;7.88;;;17.00;99.90;;;;;;6059159;23;20210;-75
2021/09/26 05:57:11;;;;;;;8.43;7.72;;;17.00;99.90;;;;;;6058181;23;20287;-75
2021/09/26 05:59:40;;;;;;;8.77;8.07;;;17.00;99.90;;;;;;6059466;23;20209;-76
2021/09/26 06:02:08;;;;;;;9.30;8.60;;;16.90;99.90;;;;;;6057013;23;20225;-78
2021/09/26 06:04:35;;;;;;;8.70;8.00;;;17.00;99.90;;;;;;6057465;23;20210;-75
2021/09/26 06:07:03;;;;;;;8.25;7.50;;;17.00;99.90;;;;;;6057076;23;20737;-75
2021/09/26 06:09:30;;;;;;;8.23;7.63;;;17.00;99.90;;;;;;6058313;23;20206;-75
2021/09/26 06:11:57;;;;;;;8.25;7.55;;;17.10;99.90;;;;;;6058894;23;20269;-75
2021/09/26 06:14:24;;;;;;;8.48;7.68;;;17.20;99.90;;;;;;6056904;23;20206;-75
2021/09/26 06:16:53;;;;;;;8.63;7.93;;;17.50;99.90;;;;;;6055062;23;20210;-76
2021/09/26 06:19:20;;;;;;;7.50;6.90;;;17.70;99.90;;;;;;6059845;23;20675;-75
2021/09/26 06:21:47;;;;;;;6.63;6.13;;;17.90;99.90;;;;;;6058681;23;20217;-75
2021/09/26 06:24:14;;;;;;;8.43;7.72;;;18.00;99.90;;;;;;6057913;23;20210;-76
2021/09/26 06:26:42;;;;;;;8.43;7.72;;;18.20;99.90;;;;;;6058913;23;20237;-75
2021/09/26 06:29:10;;;;;;;7.60;7.00;;;18.40;99.90;;;;;;6058329;23;20577;-75
2021/09/26 06:31:37;;;;;;;7.55;6.93;;;18.60;99.90;;;;;;6058711;23;20210;-76
2021/09/26 06:34:06;;;;;;;8.80;8.00;;;18.90;99.90;;;;;;6054972;23;20261;-76
2021/09/26 06:36:33;;;;;;;10.88;9.88;;;19.10;99.90;;;;;;6068321;23;20202;-77
2021/09/26 06:39:01;;;;;;;11.52;10.43;;;19.30;99.90;;;;;;6060549;23;20619;-75
2021/09/26 06:41:28;;;;;;;10.63;9.73;;;19.30;99.90;;;;;;6057143;23;20206;-75
2021/09/26 06:43:55;;;;;;;10.52;9.55;;;19.20;99.90;;;;;;6055554;23;20254;-76
2021/09/26 06:46:22;;;;;;;9.85;8.95;;;19.20;99.90;;;;;;6055200;23;20264;-76
2021/09/26 06:48:49;;;;;;;9.52;8.60;;;19.20;99.90;;;;;;6055854;23;20210;-75
2021/09/26 06:51:17;;;;;;;8.95;8.25;;;19.40;99.90;;;;;;6054423;23;20216;-75
2021/09/26 06:53:44;;;;;;;9.57;8.63;;;19.70;99.90;;;;;;6054712;23;20602;-76
2021/09/26 06:56:11;;;;;;;10.75;9.77;;;19.90;99.90;;;;;;6054454;23;20214;-75
2021/09/26 06:58:39;;;;;;;12.85;11.68;;;20.00;99.90;;;;;;6046589;23;20258;-76
2021/09/26 07:01:07;;;;;;;14.07;12.77;;;20.00;99.90;;;;;;6052974;23;20218;-77
2021/09/26 07:03:34;;;;;;;10.85;9.93;;;19.90;99.90;;;;;;6053111;23;20671;-77
2021/09/26 07:06:01;;;;;;;10.23;9.32;;;20.00;99.90;;;;;;6057258;23;20206;-77
2021/09/26 07:08:29;;;;;;;9.48;8.68;;;20.10;99.90;;;;;;6057480;23;20488;-77
2021/09/26 07:10:56;;;;;;;8.75;8.00;;;20.00;99.90;;;;;;6057539;23;20213;-77
2021/09/26 07:13:23;;;;;;;9.77;8.88;;;20.10;99.90;;;;;;6056937;23;20261;-76
2021/09/26 07:15:50;;;;;;;9.55;8.65;;;20.10;99.90;;;;;;6056894;23;20221;-76
2021/09/26 07:18:17;;;;;;;9.30;8.60;;;20.10;99.90;;;;;;6056846;23;20201;-77
2021/09/26 07:20:44;;;;;;;9.30;8.50;;;20.20;99.90;;;;;;6057437;23;20198;-76
2021/09/26 07:23:11;;;;;;;9.88;9.07;;;20.40;99.90;;;;;;6056688;23;20206;-76
2021/09/26 07:25:40;;;;;;;8.52;7.82;;;20.60;99.90;;;;;;6057106;23;20615;-76
2021/09/26 07:28:07;;;;;;;9.15;8.25;;;20.80;99.90;;;;;;6056296;23;20738;-77
2021/09/26 07:30:34;;;;;;;8.80;8.00;;;20.90;99.90;;;;;;6059673;23;20217;-77
2021/09/26 07:33:01;;;;;;;9.07;8.27;;;20.70;99.90;;;;;;6058533;23;20203;-77
2021/09/26 07:35:28;;;;;;;10.02;9.23;;;20.40;99.90;;;;;;6059973;23;20710;-77
2021/09/26 07:37:55;;;;;;;9.32;8.25;;;20.20;99.90;;;;;;6042741;23;20202;-75
2021/09/26 07:40:22;;;;;;;8.68;7.97;;;19.90;99.90;;;;;;6059023;23;20214;-77
2021/09/26 07:42:51;;;;;;;10.23;9.43;;;20.00;99.90;;;;;;6059315;23;20547;-76
2021/09/26 07:45:18;;;;;;;10.68;9.77;;;19.80;99.90;;;;;;6058887;23;20282;-77
2021/09/26 07:47:45;;;;;;;9.32;8.52;;;19.60;99.90;;;;;;6058765;23;20687;-76
2021/09/26 07:50:13;;;;;;;11.50;10.43;;;19.50;99.90;;;;;;6057709;23;20266;-75
2021/09/26 07:52:40;;;;;;;10.15;9.35;;;19.50;99.90;;;;;;6057438;23;20278;-76
2021/09/26 07:55:08;;;;;;;9.50;8.70;;;19.60;99.90;;;;;;6058034;23;20202;-76
2021/09/26 07:57:35;;;;;;;10.85;10.02;;;20.10;99.90;;;;;;6058208;23;20206;-76
2021/09/26 08:00:05;;;;;;;9.25;8.52;;;20.60;99.90;;;;;;6058807;23;20202;-77
2021/09/26 08:02:32;;;;;;;10.13;9.15;;;21.00;99.90;;;;;;6057967;23;20216;-76
2021/09/26 08:04:59;;;;;;;9.40;8.45;;;21.40;99.90;;;;;;6058969;23;20214;-75
2021/09/26 08:07:27;;;;;;;10.40;9.45;;;21.70;99.90;;;;;;6058083;23;20210;-77
2021/09/26 08:09:54;;;;;;;10.40;9.40;;;22.00;99.90;;;;;;6058264;23;20265;-77
2021/09/26 08:12:21;;;;;;;10.55;9.55;;;22.10;99.90;;;;;;6058498;23;20703;-76
2021/09/26 08:14:48;;;;;;;9.82;9.02;;;22.10;99.90;;;;;;6058269;23;20217;-77
2021/09/26 08:17:16;;;;;;;8.50;7.80;;;22.20;99.90;;;;;;6058698;23;20273;-77
2021/09/26 08:19:43;;;;;;;9.25;8.55;;;22.30;99.90;;;;;;6058445;23;20278;-78
2021/09/26 08:22:10;;;;;;;8.95;8.13;;;22.50;99.90;;;;;;6059061;23;20213;-77
2021/09/26 08:24:38;;;;;;;9.60;8.77;;;22.40;99.90;;;;;;6058111;23;20255;-77
2021/09/26 08:27:06;;;;;;;8.68;7.97;;;22.20;99.90;;;;;;6058846;23;20606;-77
2021/09/26 08:29:34;;;;;;;7.97;7.28;;;21.90;99.90;;;;;;6058333;23;20214;-76
2021/09/26 08:32:01;;;;;;;7.45;6.85;;;21.80;99.90;;;;;;6058434;23;20214;-76
2021/09/26 08:34:30;;;;;;;9.32;8.52;;;22.10;99.90;;;;;;6061290;23;20205;-76
2021/09/26 08:36:57;;;;;;;8.93;8.23;;;22.20;99.90;;;;;;6061242;23;20245;-77
2021/09/26 08:39:24;;;;;;;11.13;10.23;;;22.20;99.90;;;;;;6058965;23;20286;-76
2021/09/26 08:41:53;;;;;;;12.13;10.85;;;22.20;99.90;;;;;;6060274;23;20206;-76
2021/09/26 08:44:23;;;;;;;10.70;9.70;;;22.10;99.90;;;;;;6058389;23;20221;-76
2021/09/26 08:46:51;;;;;;;9.77;8.85;;;22.00;99.90;;;;;;6058789;23;24426;-77
2021/09/26 08:49:19;;;;;;;8.88;7.93;;;22.00;99.90;;;;;;6057363;23;20675;-76
2021/09/26 08:51:49;;;;;;;9.05;8.00;;;22.00;99.90;;;;;;6058970;23;20603;-77
2021/09/26 08:54:16;;;;;;;7.95;7.35;;;22.10;99.90;;;;;;6057408;23;20206;-77
2021/09/26 08:56:45;;;;;;;10.20;9.13;;;22.20;99.90;;;;;;6058751;23;20210;-76
2021/09/26 08:59:13;;;;;;;9.30;8.50;;;22.30;99.90;;;;;;6061755;23;20214;-76
2021/09/26 09:01:40;;;;;;;9.02;8.18;;;22.30;99.90;;;;;;6058387;23;20210;-76
2021/09/26 09:04:07;;;;;;;8.50;7.80;;;22.30;99.90;;;;;;6057702;23;20215;-75
2021/09/26 09:06:45;;;;;;;8.73;7.95;;;22.30;99.90;;;;;;6059041;23;20214;-77
2021/09/26 09:09:16;;;;;;;9.60;8.70;;;22.30;99.90;;;;;;6059640;23;20205;-77
2021/09/26 09:11:45;;;;;;;8.40;7.60;;;22.30;99.90;;;;;;6059117;23;20726;-76
2021/09/26 09:14:12;;;;;;;9.60;8.77;;;22.30;99.90;;;;;;6058557;23;20595;-77
2021/09/26 09:16:39;;;;;;;9.38;8.63;;;22.40;99.90;;;;;;6058783;23;20237;-77
2021/09/26 09:19:21;;;;;;;8.30;7.60;;;22.20;99.90;;;;;;6057722;23;20238;-76
2021/09/26 09:22:03;;;;;;;8.55;7.75;;;22.20;99.90;;;;;;6058369;23;20210;-77
2021/09/26 09:24:39;;;;;;;10.48;9.57;;;22.20;99.90;;;;;;6059272;23;20221;-76
2021/09/26 09:27:07;;;;;;;9.63;8.63;;;22.30;99.90;;;;;;6057682;23;20261;-77
2021/09/26 09:29:37;;;;;;;7.97;7.32;;;22.20;99.90;;;;;;6062959;23;20301;-77
2021/09/26 09:32:17;;;;;;;8.63;7.93;;;22.00;99.90;;;;;;6067228;23;20532;-76
2021/09/26 09:34:45;;;;;;;9.18;8.38;;;21.80;99.90;;;;;;6062736;23;20214;-77
2021/09/26 09:37:17;;;;;;;7.90;7.25;;;21.60;99.90;;;;;;6074465;23;20217;-76
2021/09/26 09:40:07;;;;;;;8.82;8.00;;;21.20;99.90;;;;;;6076642;23;20226;-75
2021/09/26 09:42:39;;;;;;;7.85;7.25;;;21.00;99.90;;;;;;6063688;23;20266;-76
2021/09/26 09:45:18;;;;;;;7.10;6.60;;;20.80;99.90;;;;;;6066307;23;20250;-76
2021/09/26 09:48:10;;;;;;;7.25;6.65;;;20.70;99.90;;;;;;6062777;23;20278;-77
2021/09/26 09:51:00;;;;;;;7.78;7.10;;;20.70;99.90;;;;;;6059411;23;20589;-77
2021/09/26 09:53:33;;;;;;;6.85;6.35;;;20.80;99.90;;;;;;6059180;23;20266;-75
2021/09/26 09:56:11;;;;;;;7.97;7.28;;;21.10;99.90;;;;;;6059781;23;20265;-77
2021/09/26 09:58:41;;;;;;;7.55;6.95;;;21.20;99.90;;;;;;6059133;23;20213;-76
2021/09/26 10:01:11;;;;;;;8.18;7.32;;;21.20;99.90;;;;;;6059268;23;20206;-76
2021/09/26 10:03:47;;;;;;;8.18;7.47;;;21.20;99.90;;;;;;6058009;23;20213;-76
2021/09/26 10:06:26;;;;;;;7.63;7.03;;;21.20;99.90;;;;;;6057970;23;20254;-76
2021/09/26 10:08:54;;;;;;;7.82;7.22;;;21.10;99.90;;;;;;6058013;23;20693;-75
2021/09/26 10:11:23;;;;;;;7.95;7.25;;;21.10;99.90;;;;;;6057418;23;20638;-76
2021/09/26 10:13:50;;;;;;;8.80;8.02;;;21.10;99.90;;;;;;6058030;23;20218;-77
2021/09/26 10:16:18;;;;;;;9.15;8.45;;;20.90;99.90;;;;;;6057825;23;20226;-76
2021/09/26 10:18:45;;;;;;;9.95;9.15;;;20.70;99.90;;;;;;6058220;23;20293;-76
2021/09/26 10:21:13;;;;;;;8.77;8.00;;;20.60;99.90;;;;;;6057658;23;20209;-76
2021/09/26 10:23:46;;;;;;;8.15;7.55;;;20.40;99.90;;;;;;6056944;23;20742;-76
2021/09/26 10:26:14;;;;;;;7.72;7.13;;;20.30;99.90;;;;;;6056870;23;20694;-77
2021/09/26 10:28:44;;;;;;;7.68;6.97;;;20.30;99.90;;;;;;6059137;23;20265;-77
2021/09/26 10:31:16;;;;;;;8.75;7.95;;;20.30;99.90;;;;;;6058136;23;20525;-76
2021/09/26 10:33:46;;;;;;;7.47;6.88;;;20.20;99.90;;;;;;6057042;23;20221;-77
2021/09/26 10:36:13;;;;;;;7.35;6.75;;;20.10;99.90;;;;;;6059632;23;20221;-76
2021/09/26 10:38:40;;;;;;;8.73;6.35;;;20.10;99.90;;;;;;6058692;23;20385;-77
2021/09/26 10:41:08;;;;;;;6.38;5.47;;;20.30;99.90;;;;;;6058301;23;20308;-76
2021/09/26 10:43:36;;;;;;;6.20;5.80;;;20.40;99.90;;;;;;6058192;23;20835;-76
2021/09/26 10:46:19;;;;;;;5.78;5.38;;;20.60;99.90;;;;;;6057795;23;20210;-77
2021/09/26 10:49:05;;;;;;;6.75;6.25;;;20.70;99.90;;;;;;6057112;23;20210;-75
2021/09/26 10:51:48;;;;;;;7.93;7.28;;;20.90;99.90;;;;;;6056679;23;20210;-76
2021/09/26 10:54:31;;;;;;;8.73;7.93;;;20.90;99.90;;;;;;6056209;23;20205;-77
2021/09/26 10:57:33;;;;;;;10.88;9.98;;;20.70;99.90;;;;;;6057279;23;20203;-77
2021/09/26 11:00:04;;;;;;;14.75;13.45;;;20.40;99.90;;;;;;6051694;23;20205;-75
2021/09/26 11:02:36;;;;;;;14.00;12.80;;;20.10;99.90;;;;;;6058299;23;20229;-76
2021/09/26 11:05:05;;;;;;;13.73;12.52;;;19.80;99.90;;;;;;6058598;23;20252;-76
2021/09/26 11:07:34;;;;;;;11.38;10.48;;;19.70;99.90;;;;;;6059550;23;20217;-76
2021/09/26 11:10:04;;;;;;;13.02;11.77;;;19.70;99.90;;;;;;6059135;23;20265;-76
2021/09/26 11:12:38;;;;;;;19.63;17.77;;;19.60;99.90;;;;;;6058874;23;20222;-76
2021/09/26 11:15:08;;;;;;;17.23;15.77;;;19.40;99.90;;;;;;6057802;23;20209;-76
2021/09/26 11:17:45;;;;;;;15.60;14.18;;;19.30;99.90;;;;;;6057774;23;20521;-76
2021/09/26 11:20:33;;;;;;;13.45;12.25;;;19.20;99.90;;;;;;6057904;23;20237;-76
2021/09/26 11:23:32;;;;;;;17.08;15.68;;;19.10;99.90;;;;;;6056203;23;20674;-76
2021/09/26 11:26:07;;;;;;;11.80;10.80;;;19.10;99.90;;;;;;6059055;23;20261;-75
2021/09/26 11:28:36;;;;;;;10.73;9.73;;;19.20;99.90;;;;;;6058043;23;20209;-76
2021/09/26 11:31:04;;;;;;;9.20;8.40;;;19.40;99.90;;;;;;6057547;23;20508;-76
2021/09/26 11:33:57;;;;;;;9.52;8.73;;;19.50;99.90;;;;;;6057860;23;20214;-76
2021/09/26 11:36:25;;;;;;;9.82;9.05;;;19.70;99.90;;;;;;6059130;23;20213;-76
2021/09/26 11:38:53;;;;;;;9.77;8.95;;;19.70;99.90;;;;;;6058604;23;20217;-74
2021/09/26 11:41:36;;;;;;;8.68;7.97;;;19.80;99.90;;;;;;6059180;23;20214;-75
2021/09/26 11:44:04;;;;;;;8.05;7.45;;;20.00;99.90;;;;;;6057745;23;20293;-75
2021/09/26 11:46:32;;;;;;;8.23;7.53;;;20.10;99.90;;;;;;6059314;23;20214;-75
2021/09/26 11:49:04;;;;;;;8.45;7.75;;;20.20;99.90;;;;;;6058743;23;20210;-75
2021/09/26 11:51:31;;;;;;;7.90;7.30;;;20.20;99.90;;;;;;6059243;23;20210;-75
2021/09/26 11:53:59;;;;;;;10.93;9.90;;;20.10;99.90;;;;;;6059038;23;20690;-76
2021/09/26 11:56:28;;;;;;;11.52;10.52;;;20.00;99.90;;;;;;6058429;23;20202;-76
2021/09/26 11:58:58;;;;;;;11.18;10.07;;;19.90;99.90;;;;;;6044357;23;20285;-75
2021/09/26 12:01:30;;;;;;;10.55;9.55;;;19.70;99.90;;;;;;6059058;23;20202;-76
2021/09/26 12:04:13;;;;;;;10.45;9.52;;;19.70;99.90;;;;;;6058680;23;20221;-76
2021/09/26 12:06:42;;;;;;;9.80;9.00;;;19.70;99.90;;;;;;6058022;23;20202;-75
2021/09/26 12:09:09;;;;;;;12.00;11.02;;;19.70;99.90;;;;;;6058890;23;20206;-76
2021/09/26 12:11:50;;;;;;;12.30;10.88;;;19.70;99.90;;;;;;6058582;23;20222;-76
2021/09/26 12:14:29;;;;;;;11.18;10.15;;;19.60;99.90;;;;;;6058521;23;20206;-76
2021/09/26 12:16:56;;;;;;;12.07;11.07;;;19.60;99.90;;;;;;6057515;23;20204;-76
2021/09/26 12:19:24;;;;;;;12.38;11.35;;;19.50;99.90;;;;;;6058352;23;20702;-75
2021/09/26 12:22:00;;;;;;;12.68;11.52;;;19.40;99.90;;;;;;6059024;23;20562;-76
2021/09/26 12:24:34;;;;;;;10.43;9.63;;;19.30;99.90;;;;;;6058573;23;20218;-76
2021/09/26 12:27:16;;;;;;;10.05;9.25;;;19.40;99.90;;;;;;6073764;23;20317;-76
2021/09/26 12:29:52;;;;;;;8.40;7.80;;;19.60;99.90;;;;;;6068380;23;20210;-76
2021/09/26 12:32:19;;;;;;;9.98;9.07;;;19.80;99.90;;;;;;6060360;23;20205;-76
2021/09/26 12:34:48;;;;;;;12.95;11.65;;;19.90;99.90;;;;;;6057865;23;20210;-76
2021/09/26 12:37:18;;;;;;;10.45;9.65;;;19.90;99.90;;;;;;6058641;23;20256;-75
2021/09/26 12:39:51;;;;;;;11.80;10.88;;;19.80;99.90;;;;;;6057972;23;20209;-76
2021/09/26 12:42:20;;;;;;;11.82;10.73;;;19.80;99.90;;;;;;6058907;23;20599;-76
2021/09/26 12:44:48;;;;;;;13.32;12.23;;;19.80;99.90;;;;;;6057765;23;20210;-76
2021/09/26 12:47:18;;;;;;;12.52;11.38;;;19.70;99.90;;;;;;6058058;23;20206;-76
2021/09/26 12:49:48;;;;;;;11.48;10.50;;;19.70;99.90;;;;;;6057922;23;20219;-75
2021/09/26 12:52:17;;;;;;;11.30;10.30;;;19.60;99.90;;;;;;6058240;23;20206;-75
2021/09/26 12:54:51;;;;;;;11.82;10.82;;;19.60;99.90;;;;;;6057773;23;20214;-75
2021/09/26 12:57:23;;;;;;;11.73;10.57;;;19.60;99.90;;;;;;6057584;23;20237;-75
2021/09/26 12:59:52;;;;;;;10.57;9.68;;;19.60;99.90;;;;;;6050526;23;21137;-73
2021/09/26 13:02:22;;;;;;;10.95;9.95;;;19.60;99.90;;;;;;6054444;23;20282;-74
2021/09/26 13:04:59;;;;;;;10.00;9.27;;;19.60;99.90;;;;;;6055965;23;20264;-74
2021/09/26 13:07:28;;;;;;;10.40;9.45;;;19.60;99.90;;;;;;6057447;23;20205;-74